Time;durP1;ratioP1;P1;durP2;ratioP2;P2;SDS_P1;SDS_P2;PMS_P1;PMS_P2;Temp;Humidity;BMP_temperature;BMP_pressure;BME280_temperature;BME280_humidity;BME280_pressure;Samples;Min_cycle;Max_cycle;Signal;HPM_P1;HPM_P2
2021/12/29 00:04:05;;;;;;;39.07;22.37;;;-2.80;99.90;;;;;;10470013;28;20200;-87
2021/12/29 00:09:28;;;;;;;43.30;25.03;;;-2.80;99.90;;;;;;10490587;28;20203;-85
2021/12/29 00:14:51;;;;;;;46.33;24.90;;;-2.70;99.90;;;;;;10482509;28;20521;-85
2021/12/29 00:20:19;;;;;;;43.97;23.90;;;-2.80;99.90;;;;;;10511054;28;20196;-84
2021/12/29 00:25:41;;;;;;;45.17;24.07;;;-2.80;99.90;;;;;;10510886;28;20562;-86
2021/12/29 00:31:03;;;;;;;46.63;23.53;;;-2.70;99.90;;;;;;10510925;28;20428;-85
2021/12/29 00:36:44;;;;;;;40.57;22.43;;;-2.80;99.90;;;;;;10521646;28;20529;-85
2021/12/29 00:42:25;;;;;;;41.77;22.93;;;-2.80;99.90;;;;;;10524170;28;20411;-85
2021/12/29 00:48:12;;;;;;;46.60;24.87;;;-2.70;99.90;;;;;;10511963;28;20229;-86
2021/12/29 00:53:34;;;;;;;37.50;21.80;;;-2.80;99.90;;;;;;10495836;28;20249;-85
2021/12/29 00:58:56;;;;;;;40.93;21.80;;;-2.80;99.90;;;;;;10495699;28;20232;-84
2021/12/29 01:04:20;;;;;;;38.37;21.43;;;-2.80;99.90;;;;;;10509054;28;20215;-86
2021/12/29 01:09:44;;;;;;;42.40;22.43;;;-2.80;99.90;;;;;;10508859;28;20550;-86
2021/12/29 01:15:13;;;;;;;38.60;21.90;;;-2.80;99.90;;;;;;10508457;28;20303;-85
2021/12/29 01:20:36;;;;;;;42.50;22.20;;;-2.80;99.90;;;;;;10509210;28;20250;-85
2021/12/29 01:25:58;;;;;;;41.33;22.70;;;-2.80;99.90;;;;;;10508291;28;20225;-85
2021/12/29 01:31:20;;;;;;;40.10;21.53;;;-2.80;99.90;;;;;;10508443;28;20201;-85
2021/12/29 01:36:42;;;;;;;36.30;21.47;;;-2.90;99.90;;;;;;10508095;28;20234;-85
2021/12/29 01:42:05;;;;;;;40.37;21.60;;;-2.80;99.90;;;;;;10507745;28;20232;-85
2021/12/29 01:47:29;;;;;;;42.33;21.40;;;-2.90;99.90;;;;;;10510456;28;20395;-85
2021/12/29 01:52:56;;;;;;;41.20;21.43;;;-2.90;99.90;;;;;;10507554;28;20200;-85
2021/12/29 01:58:19;;;;;;;41.27;21.40;;;-2.90;99.90;;;;;;10492222;28;20215;-85
2021/12/29 02:03:41;;;;;;;36.40;20.53;;;-2.90;99.90;;;;;;10507010;28;20202;-85
2021/12/29 02:09:05;;;;;;;38.93;21.10;;;-2.90;99.90;;;;;;10478835;28;20432;-85
2021/12/29 02:14:27;;;;;;;38.93;21.10;;;-2.90;99.90;;;;;;10473718;28;20314;-84
2021/12/29 02:19:49;;;;;;;37.77;21.03;;;-2.90;99.90;;;;;;10492557;28;20218;-85
2021/12/29 02:30:37;;;;;;;41.83;20.90;;;-2.90;99.90;;;;;;10519834;28;20245;-85
2021/12/29 02:35:59;;;;;;;39.67;21.77;;;-2.80;99.90;;;;;;10491960;28;20227;-85
2021/12/29 02:41:25;;;;;;;44.27;22.63;;;-2.90;99.90;;;;;;10491932;28;20202;-85
2021/12/29 02:46:47;;;;;;;39.07;19.93;;;-2.90;99.90;;;;;;10505545;28;20248;-86
2021/12/29 02:52:11;;;;;;;40.50;22.40;;;-2.90;99.90;;;;;;10505581;28;20195;-85
2021/12/29 02:57:32;;;;;;;41.60;22.67;;;-2.90;99.90;;;;;;10505445;28;20310;-86
2021/12/29 03:02:54;;;;;;;43.07;23.50;;;-2.90;99.90;;;;;;10508414;28;20240;-85
2021/12/29 03:08:18;;;;;;;41.50;22.13;;;-3.00;99.90;;;;;;10490673;28;20525;-85
2021/12/29 03:13:41;;;;;;;44.80;23.50;;;-3.00;99.90;;;;;;10488871;28;20324;-85
2021/12/29 03:19:05;;;;;;;39.87;22.33;;;-3.00;99.90;;;;;;10471903;28;20423;-86
2021/12/29 03:24:27;;;;;;;46.40;23.17;;;-3.00;99.90;;;;;;10471724;28;20271;-85
2021/12/29 03:29:49;;;;;;;46.00;23.37;;;-2.90;99.90;;;;;;10475199;28;20199;-86
2021/12/29 03:35:11;;;;;;;49.37;24.07;;;-2.90;99.90;;;;;;10512549;28;20250;-85
2021/12/29 03:40:35;;;;;;;43.63;23.87;;;-2.90;99.90;;;;;;10498689;28;20516;-86
2021/12/29 03:45:57;;;;;;;43.33;23.50;;;-2.90;99.90;;;;;;10512566;28;20493;-86
2021/12/29 03:51:19;;;;;;;43.43;22.90;;;-2.80;99.90;;;;;;10498004;28;20577;-86
2021/12/29 03:56:41;;;;;;;46.37;23.77;;;-2.90;99.90;;;;;;10498041;28;20272;-85
2021/12/29 04:02:03;;;;;;;44.13;22.83;;;-2.80;99.90;;;;;;10526032;28;20484;-86
2021/12/29 04:07:25;;;;;;;41.90;22.57;;;-2.80;99.90;;;;;;10525711;28;20489;-86
2021/12/29 04:12:48;;;;;;;44.30;23.53;;;-2.80;99.90;;;;;;10485698;28;20490;-86
2021/12/29 04:18:25;;;;;;;48.23;26.03;;;-2.80;99.90;;;;;;10468729;28;20270;-87
2021/12/29 04:23:48;;;;;;;49.40;24.57;;;-2.80;99.90;;;;;;10483867;28;20244;-86
2021/12/29 04:29:13;;;;;;;41.27;22.77;;;-2.80;99.90;;;;;;10469751;28;20196;-85
2021/12/29 04:34:35;;;;;;;39.23;23.43;;;-2.80;99.90;;;;;;10510763;28;20242;-86
2021/12/29 04:39:56;;;;;;;47.73;23.47;;;-2.80;99.90;;;;;;10510303;28;20202;-85
2021/12/29 04:45:19;;;;;;;44.43;24.70;;;-2.80;99.90;;;;;;10510148;28;20209;-86
2021/12/29 04:51:03;;;;;;;41.40;22.80;;;-2.70;99.90;;;;;;10509813;28;20237;-85
2021/12/29 04:56:25;;;;;;;48.03;26.40;;;-2.60;99.90;;;;;;10510203;28;20467;-86
2021/12/29 05:01:47;;;;;;;53.07;26.73;;;-2.70;99.90;;;;;;10521157;28;20191;-85
2021/12/29 05:12:49;;;;;;;45.20;25.63;;;-2.60;99.90;;;;;;10483147;28;20204;-86
2021/12/29 05:18:11;;;;;;;52.40;27.77;;;-2.60;99.90;;;;;;10470024;28;20204;-85
2021/12/29 05:23:33;;;;;;;42.17;23.30;;;-2.60;99.90;;;;;;10495497;28;20196;-85
2021/12/29 05:28:55;;;;;;;47.67;25.40;;;-2.60;99.90;;;;;;10467226;28;20251;-85
2021/12/29 05:34:17;;;;;;;51.40;25.43;;;-2.60;99.90;;;;;;10494428;28;20295;-85
2021/12/29 05:39:39;;;;;;;50.10;25.50;;;-2.60;99.90;;;;;;10507900;28;20202;-85
2021/12/29 05:45:07;;;;;;;49.87;25.73;;;-2.60;99.90;;;;;;10507727;28;20197;-86
2021/12/29 05:50:30;;;;;;;53.17;26.73;;;-2.50;99.90;;;;;;10521214;28;20263;-86
2021/12/29 05:55:54;;;;;;;48.43;25.20;;;-2.50;99.90;;;;;;10493813;28;20243;-86
2021/12/29 06:01:16;;;;;;;49.23;26.77;;;-2.50;99.90;;;;;;10492983;28;20592;-86
2021/12/29 06:06:38;;;;;;;42.20;24.83;;;-2.60;99.90;;;;;;10507073;28;20199;-86
2021/12/29 06:12:00;;;;;;;48.10;25.40;;;-2.50;99.90;;;;;;10492562;28;20204;-87
2021/12/29 06:17:22;;;;;;;52.13;26.17;;;-2.50;99.90;;;;;;10505603;28;20234;-84
2021/12/29 06:22:44;;;;;;;52.77;26.83;;;-2.40;99.90;;;;;;10506705;28;20211;-83
2021/12/29 06:28:06;;;;;;;52.30;27.57;;;-2.40;99.90;;;;;;10520129;28;20193;-83
2021/12/29 06:33:28;;;;;;;51.60;26.43;;;-2.40;99.90;;;;;;10465340;28;20198;-84
2021/12/29 06:38:50;;;;;;;50.67;25.77;;;-2.40;99.90;;;;;;10465029;28;20192;-84
2021/12/29 06:44:21;;;;;;;63.80;30.87;;;-2.40;99.90;;;;;;10477756;28;20360;-84
2021/12/29 06:49:43;;;;;;;59.43;30.37;;;-2.30;99.90;;;;;;10464147;28;20237;-83
2021/12/29 06:55:06;;;;;;;66.50;32.07;;;-2.30;99.90;;;;;;10450112;28;20230;-83
2021/12/29 07:00:30;;;;;;;75.33;35.80;;;-2.30;99.90;;;;;;10465777;28;20191;-83
2021/12/29 07:05:54;;;;;;;59.50;30.10;;;-2.30;99.90;;;;;;10505277;28;20210;-85
2021/12/29 07:11:16;;;;;;;59.77;30.30;;;-2.30;99.90;;;;;;10492695;28;20200;-85
2021/12/29 07:16:39;;;;;;;62.30;30.73;;;-2.20;99.90;;;;;;10478015;28;20243;-85
2021/12/29 07:22:04;;;;;;;58.07;29.97;;;-2.20;99.90;;;;;;10463594;28;20255;-85
2021/12/29 07:27:26;;;;;;;57.70;28.80;;;-2.20;99.90;;;;;;10462867;28;20199;-85
2021/12/29 07:32:48;;;;;;;55.87;28.07;;;-2.20;99.90;;;;;;10472540;28;20401;-86
2021/12/29 07:38:10;;;;;;;54.77;29.63;;;-2.20;99.90;;;;;;10478302;28;20229;-83
2021/12/29 07:43:35;;;;;;;54.23;26.67;;;-2.20;99.90;;;;;;10479587;28;20197;-84
2021/12/29 07:48:57;;;;;;;56.23;30.53;;;-2.10;99.90;;;;;;10476649;28;20320;-83
2021/12/29 07:54:21;;;;;;;59.77;31.30;;;-2.10;99.90;;;;;;10467383;28;20223;-84
2021/12/29 07:59:43;;;;;;;84.10;37.53;;;-2.10;99.90;;;;;;10495533;28;20189;-84
2021/12/29 08:05:07;;;;;;;65.17;30.67;;;-2.20;99.90;;;;;;10511975;28;20196;-84
2021/12/29 08:10:39;;;;;;;69.47;35.73;;;-2.10;99.90;;;;;;10502568;28;20230;-84
2021/12/29 08:16:01;;;;;;;60.83;31.77;;;-2.10;99.90;;;;;;10469714;28;20240;-86
2021/12/29 08:21:30;;;;;;;60.40;30.50;;;-2.10;99.90;;;;;;10470471;28;20220;-86
2021/12/29 08:27:11;;;;;;;70.07;36.13;;;-2.00;99.90;;;;;;10503728;28;20273;-88
2021/12/29 08:32:33;;;;;;;69.90;32.63;;;-2.00;99.90;;;;;;10543093;28;20207;-89
2021/12/29 08:37:57;;;;;;;98.80;45.77;;;-1.90;99.90;;;;;;10458070;28;20232;-88
2021/12/29 08:43:18;;;;;;;93.53;43.93;;;-1.90;99.90;;;;;;10494638;28;20247;-88
2021/12/29 08:48:42;;;;;;;74.53;37.27;;;-1.90;99.90;;;;;;10463652;28;20232;-84
2021/12/29 08:54:05;;;;;;;77.87;38.37;;;-1.80;99.90;;;;;;10449617;28;20388;-84
2021/12/29 08:59:27;;;;;;;63.20;31.50;;;-1.80;99.90;;;;;;10475007;28;20222;-80
2021/12/29 09:04:49;;;;;;;58.03;31.97;;;-1.80;99.90;;;;;;10503312;28;20192;-82
2021/12/29 09:10:13;;;;;;;57.77;30.07;;;-1.80;99.90;;;;;;10503735;28;20239;-77
2021/12/29 09:15:35;;;;;;;57.80;30.63;;;-1.80;99.90;;;;;;10517428;28;20392;-81
2021/12/29 09:21:12;;;;;;;65.27;32.83;;;-1.70;99.90;;;;;;10468795;28;20410;-85
2021/12/29 09:26:34;;;;;;;64.50;32.90;;;-1.60;99.90;;;;;;10501388;28;20214;-80
2021/12/29 09:31:56;;;;;;;64.13;31.63;;;-1.70;99.90;;;;;;10472266;28;20205;-81
2021/12/29 09:37:18;;;;;;;66.80;35.47;;;-1.60;99.90;;;;;;10462532;28;20228;-78
2021/12/29 09:42:41;;;;;;;58.13;32.03;;;-1.60;99.90;;;;;;10476269;28;20201;-80
2021/12/29 09:48:03;;;;;;;70.53;35.33;;;-1.60;99.90;;;;;;10460827;28;20256;-79
2021/12/29 09:53:25;;;;;;;67.90;33.00;;;-1.50;99.90;;;;;;10460144;28;20519;-80
2021/12/29 09:58:47;;;;;;;66.80;31.43;;;-1.50;99.90;;;;;;10465335;28;20190;-82
2021/12/29 10:04:09;;;;;;;62.87;33.37;;;-1.50;99.90;;;;;;10515114;28;20247;-81
2021/12/29 10:09:33;;;;;;;60.83;32.47;;;-1.50;99.90;;;;;;10501106;28;20314;-81
2021/12/29 10:14:57;;;;;;;61.97;31.30;;;-1.50;99.90;;;;;;10465280;28;20216;-79
2021/12/29 10:20:19;;;;;;;69.00;35.83;;;-1.50;99.90;;;;;;10490455;28;20200;-82
2021/12/29 10:25:42;;;;;;;81.23;41.80;;;-1.40;99.90;;;;;;10501427;28;20220;-84
2021/12/29 10:31:06;;;;;;;77.97;40.70;;;-1.40;99.90;;;;;;10478510;28;20229;-80
2021/12/29 10:36:31;;;;;;;71.83;39.30;;;-1.40;99.90;;;;;;10460485;28;20233;-80
2021/12/29 10:42:02;;;;;;;84.47;43.23;;;-1.30;99.90;;;;;;10474002;28;20487;-79
2021/12/29 10:47:31;;;;;;;65.67;36.00;;;-1.20;99.90;;;;;;10473199;28;20555;-79
2021/12/29 10:52:55;;;;;;;61.23;35.37;;;-1.20;99.90;;;;;;10445198;28;20209;-86
2021/12/29 10:58:21;;;;;;;54.50;31.43;;;-1.10;99.90;;;;;;10459867;28;20236;-85
2021/12/29 11:04:01;;;;;;;73.13;36.93;;;-1.10;99.90;;;;;;10472467;28;20205;-79
2021/12/29 11:09:32;;;;;;;62.47;34.43;;;-1.00;99.90;;;;;;10470562;28;20397;-81
2021/12/29 11:14:54;;;;;;;58.37;30.50;;;-1.00;99.90;;;;;;10508698;28;20228;-90
2021/12/29 11:20:21;;;;;;;67.20;33.37;;;-1.00;99.90;;;;;;10495087;28;20209;-82
2021/12/29 11:25:45;;;;;;;69.60;35.40;;;-1.00;99.90;;;;;;10486766;28;20400;-90
2021/12/29 11:31:09;;;;;;;72.10;36.43;;;-0.90;99.90;;;;;;10496170;28;20319;-80
2021/12/29 11:36:30;;;;;;;68.10;34.33;;;-0.90;99.90;;;;;;10480552;28;20310;-83
2021/12/29 11:41:53;;;;;;;65.23;31.77;;;-0.80;99.90;;;;;;10466983;28;20206;-88
2021/12/29 11:47:15;;;;;;;65.27;35.17;;;-0.80;99.90;;;;;;10465600;28;20504;-87
2021/12/29 11:52:43;;;;;;;79.40;40.87;;;-0.80;99.90;;;;;;10504294;28;20285;-86
2021/12/29 11:58:38;;;;;;;72.43;38.13;;;-0.80;99.90;;;;;;10521775;28;20241;-83
2021/12/29 12:04:09;;;;;;;68.23;38.63;;;-0.90;99.90;;;;;;10507615;28;20373;-85
2021/12/29 12:09:45;;;;;;;75.33;39.80;;;-0.90;99.90;;;;;;10530019;28;20212;-82
2021/12/29 12:15:09;;;;;;;77.53;41.20;;;-0.90;99.90;;;;;;10495280;28;20237;-86
2021/12/29 12:20:42;;;;;;;74.43;39.33;;;-0.90;99.90;;;;;;10474049;28;20198;-85
2021/12/29 12:26:10;;;;;;;67.30;36.17;;;-0.80;99.90;;;;;;10451720;28;20210;-81
2021/12/29 12:31:32;;;;;;;64.73;34.73;;;-0.70;99.90;;;;;;10478441;28;20269;-81
2021/12/29 12:36:55;;;;;;;55.83;30.17;;;-0.70;99.90;;;;;;10464548;28;20313;-84
2021/12/29 12:42:17;;;;;;;64.77;34.57;;;-0.70;99.90;;;;;;10477851;28;20206;-82
2021/12/29 12:47:39;;;;;;;62.87;33.63;;;-0.80;99.90;;;;;;10488303;28;20240;-80
2021/12/29 12:53:02;;;;;;;60.63;31.80;;;-0.70;99.90;;;;;;10508840;28;20204;-85
2021/12/29 12:58:28;;;;;;;60.10;30.50;;;-0.80;99.90;;;;;;10491662;28;20288;-79
2021/12/29 13:04:08;;;;;;;58.43;32.43;;;-0.70;99.90;;;;;;10463196;28;20205;-79
2021/12/29 13:09:32;;;;;;;60.80;33.57;;;-0.80;99.90;;;;;;10486747;28;20565;-81
2021/12/29 13:15:07;;;;;;;63.97;38.07;;;-0.80;99.90;;;;;;10503366;28;20319;-80
2021/12/29 13:20:39;;;;;;;62.73;35.20;;;-0.80;99.90;;;;;;10484685;28;20217;-86
2021/12/29 13:26:03;;;;;;;54.67;31.70;;;-0.70;99.90;;;;;;10462152;28;20200;-80
2021/12/29 13:31:25;;;;;;;58.47;32.80;;;-0.60;99.90;;;;;;10461669;28;20279;-82
2021/12/29 13:36:49;;;;;;;53.30;31.67;;;-0.70;99.90;;;;;;10447212;28;20234;-81
2021/12/29 13:42:11;;;;;;;58.90;33.70;;;-0.70;99.90;;;;;;10461114;28;20235;-81
2021/12/29 13:47:33;;;;;;;66.60;34.47;;;-0.70;99.90;;;;;;10486798;28;20233;-82
2021/12/29 13:52:58;;;;;;;92.17;45.57;;;-0.70;99.90;;;;;;10502123;28;20203;-80
2021/12/29 13:58:20;;;;;;;66.50;38.40;;;-0.60;99.90;;;;;;10515777;28;20226;-78
2021/12/29 14:03:42;;;;;;;69.83;38.83;;;-0.70;99.90;;;;;;10504747;28;20496;-85
2021/12/29 14:09:07;;;;;;;65.40;36.70;;;-0.60;99.90;;;;;;10516184;28;20212;-86
2021/12/29 14:14:29;;;;;;;69.73;36.60;;;-0.60;99.90;;;;;;10514487;28;20283;-81
2021/12/29 14:19:52;;;;;;;71.10;37.37;;;-0.70;99.90;;;;;;10473233;28;20233;-84
2021/12/29 14:25:16;;;;;;;67.53;35.43;;;-0.70;99.90;;;;;;10459972;28;20297;-78
2021/12/29 14:30:42;;;;;;;62.87;33.67;;;-0.60;99.90;;;;;;10460060;28;20206;-81
2021/12/29 14:36:05;;;;;;;86.93;45.00;;;-0.60;99.90;;;;;;10446370;28;20230;-79
2021/12/29 14:41:27;;;;;;;70.17;37.70;;;-0.60;99.90;;;;;;10445987;28;20282;-80
2021/12/29 14:46:55;;;;;;;75.90;40.53;;;-0.60;99.90;;;;;;10528190;28;20389;-78
2021/12/29 14:52:18;;;;;;;82.20;45.10;;;-0.50;99.90;;;;;;10474214;28;20199;-85
2021/12/29 14:57:41;;;;;;;69.90;39.53;;;-0.50;99.90;;;;;;10457718;28;20234;-79
2021/12/29 15:03:05;;;;;;;82.30;45.10;;;-0.50;99.90;;;;;;10472917;28;20377;-77
2021/12/29 15:08:29;;;;;;;80.33;43.77;;;-0.40;99.90;;;;;;10491796;28;20205;-81
2021/12/29 15:13:51;;;;;;;94.40;50.87;;;-0.30;99.90;;;;;;10491551;28;20272;-80
2021/12/29 15:19:14;;;;;;;74.50;41.30;;;-0.40;99.90;;;;;;10473748;28;20293;-80
2021/12/29 15:24:36;;;;;;;76.50;37.83;;;-0.40;99.90;;;;;;10474424;28;20198;-82
2021/12/29 15:30:00;;;;;;;75.13;38.80;;;-0.40;99.90;;;;;;10458264;28;20232;-80
2021/12/29 15:35:23;;;;;;;73.47;37.73;;;-0.40;99.90;;;;;;10479784;28;20241;-81
2021/12/29 15:40:45;;;;;;;74.93;41.77;;;-0.40;99.90;;;;;;10490418;28;20202;-79
2021/12/29 15:46:09;;;;;;;93.27;49.50;;;-0.40;99.90;;;;;;10471500;28;20191;-79
2021/12/29 15:51:44;;;;;;;73.13;37.27;;;-0.50;99.90;;;;;;10480462;28;20334;-78
2021/12/29 15:57:08;;;;;;;64.07;33.63;;;-0.50;99.90;;;;;;10486776;28;20235;-80
2021/12/29 16:02:30;;;;;;;79.63;39.30;;;-0.50;99.90;;;;;;10488371;28;20188;-84
2021/12/29 16:07:53;;;;;;;83.80;40.57;;;-0.50;99.90;;;;;;10489195;28;20306;-82
2021/12/29 16:13:15;;;;;;;119.80;56.20;;;-0.40;99.90;;;;;;10515499;28;20271;-80
2021/12/29 16:18:39;;;;;;;178.70;80.33;;;-0.50;99.90;;;;;;10523552;28;20232;-80
2021/12/29 16:24:01;;;;;;;135.57;60.73;;;-0.50;99.90;;;;;;10522862;28;20198;-82
2021/12/29 16:29:24;;;;;;;110.60;52.00;;;-0.50;99.90;;;;;;10520695;28;20205;-79
2021/12/29 16:34:49;;;;;;;107.50;48.83;;;-0.50;99.90;;;;;;10506926;28;20508;-81
2021/12/29 16:40:13;;;;;;;111.97;50.57;;;-0.50;99.90;;;;;;10508111;28;20198;-80
2021/12/29 16:45:35;;;;;;;133.43;59.33;;;-0.50;99.90;;;;;;10509904;28;20191;-80
2021/12/29 16:50:56;;;;;;;91.10;48.33;;;-0.50;99.90;;;;;;10509071;28;20298;-79
2021/12/29 16:56:20;;;;;;;90.17;42.60;;;-0.50;99.90;;;;;;10525648;28;20235;-79
2021/12/29 17:01:44;;;;;;;83.83;40.13;;;-0.40;99.90;;;;;;10509018;28;20197;-82
2021/12/29 17:07:06;;;;;;;95.63;45.87;;;-0.40;99.90;;;;;;10508746;28;20233;-79
2021/12/29 17:12:28;;;;;;;104.00;46.23;;;-0.30;99.90;;;;;;10506305;28;20209;-80
2021/12/29 17:17:51;;;;;;;101.10;45.90;;;-0.40;99.90;;;;;;10486487;28;20226;-82
2021/12/29 17:23:13;;;;;;;92.23;44.97;;;-0.40;99.90;;;;;;10508232;28;20196;-79
2021/12/29 17:28:36;;;;;;;95.13;43.30;;;-0.30;99.90;;;;;;10506893;28;20195;-80
2021/12/29 17:34:00;;;;;;;98.97;43.10;;;-0.30;99.90;;;;;;10508067;28;20201;-81
2021/12/29 17:39:22;;;;;;;106.57;47.73;;;-0.30;99.90;;;;;;10507683;28;20305;-86
2021/12/29 17:44:44;;;;;;;124.57;56.03;;;-0.20;99.90;;;;;;10520923;28;20205;-81
2021/12/29 17:50:09;;;;;;;126.40;56.50;;;-0.20;99.90;;;;;;10506966;28;20313;-79
2021/12/29 17:55:31;;;;;;;125.37;53.03;;;-0.30;99.90;;;;;;10507185;28;20248;-84
2021/12/29 18:00:53;;;;;;;106.07;49.00;;;-0.30;99.90;;;;;;10492414;28;20191;-82
2021/12/29 18:06:17;;;;;;;105.27;45.27;;;-0.30;99.90;;;;;;10499447;28;20198;-83
2021/12/29 18:11:39;;;;;;;95.23;42.73;;;-0.30;99.90;;;;;;10476130;28;20207;-85
2021/12/29 18:17:01;;;;;;;101.53;45.93;;;-0.30;99.90;;;;;;10520598;28;20230;-81
2021/12/29 18:22:23;;;;;;;111.10;47.77;;;-0.30;99.90;;;;;;10506072;28;20195;-89
2021/12/29 18:27:45;;;;;;;108.27;45.67;;;-0.30;99.90;;;;;;10505606;28;20202;-85
2021/12/29 18:33:07;;;;;;;103.47;45.60;;;-0.20;99.90;;;;;;10505740;28;20386;-82
2021/12/29 18:38:29;;;;;;;103.63;45.70;;;-0.10;99.90;;;;;;10518667;28;20567;-81
2021/12/29 18:43:54;;;;;;;115.43;48.33;;;-0.20;99.90;;;;;;10502600;28;20261;-82
2021/12/29 18:49:16;;;;;;;124.30;50.47;;;-0.20;99.90;;;;;;10536005;28;20241;-82
2021/12/29 18:54:38;;;;;;;168.60;67.30;;;-0.20;99.90;;;;;;10505483;28;20351;-83
2021/12/29 19:00:00;;;;;;;189.37;78.60;;;-0.20;99.90;;;;;;10505115;28;20564;-81
2021/12/29 19:05:28;;;;;;;171.53;67.07;;;-0.30;99.90;;;;;;10505559;28;20491;-82
2021/12/29 19:10:51;;;;;;;140.80;58.20;;;-0.30;99.90;;;;;;10477360;28;20367;-81
2021/12/29 19:16:13;;;;;;;144.97;57.13;;;-0.30;99.90;;;;;;10480240;28;20234;-84
2021/12/29 19:21:35;;;;;;;132.57;53.50;;;-0.30;99.90;;;;;;10482670;28;20275;-80
2021/12/29 19:26:57;;;;;;;118.80;46.97;;;-0.40;99.90;;;;;;10482754;28;20438;-83
2021/12/29 19:32:19;;;;;;;116.47;45.40;;;-0.40;99.90;;;;;;10479441;28;20192;-79
2021/12/29 19:37:42;;;;;;;111.50;45.67;;;-0.40;99.90;;;;;;10477765;28;20411;-87
2021/12/29 19:43:04;;;;;;;130.83;54.63;;;-0.40;99.90;;;;;;10479741;28;20200;-81
2021/12/29 19:48:25;;;;;;;137.23;52.87;;;-0.40;99.90;;;;;;10519283;28;20235;-86
2021/12/29 19:53:47;;;;;;;137.80;54.27;;;-0.40;99.90;;;;;;10511868;28;20272;-79
2021/12/29 19:59:10;;;;;;;160.07;55.00;;;-0.40;99.90;;;;;;10511633;28;20550;-82
2021/12/29 20:04:32;;;;;;;130.07;50.70;;;-0.40;99.90;;;;;;10525739;28;20256;-81
2021/12/29 20:09:54;;;;;;;124.80;49.67;;;-0.40;99.90;;;;;;10525900;28;20389;-86
2021/12/29 20:15:18;;;;;;;124.27;48.30;;;-0.30;99.90;;;;;;10522873;28;20276;-85
2021/12/29 20:20:43;;;;;;;139.80;53.87;;;-0.30;99.90;;;;;;10512066;28;20388;-88
2021/12/29 20:26:08;;;;;;;140.07;53.87;;;-0.20;99.90;;;;;;10511101;28;20196;-86
2021/12/29 20:31:33;;;;;;;144.53;54.17;;;-0.20;99.90;;;;;;10510900;28;20225;-89
2021/12/29 20:36:55;;;;;;;129.27;53.67;;;-0.10;99.90;;;;;;10510711;28;20225;-85
2021/12/29 20:42:18;;;;;;;126.60;52.53;;;0.00;99.90;;;;;;10524439;28;20219;-87
2021/12/29 20:47:40;;;;;;;125.20;49.00;;;0.00;99.90;;;;;;10510098;28;20564;-85
2021/12/29 20:53:02;;;;;;;120.43;47.87;;;0.00;99.90;;;;;;10524637;28;20191;-86
2021/12/29 20:58:24;;;;;;;109.57;44.10;;;0.00;99.90;;;;;;10495932;28;20225;-90
2021/12/29 21:03:47;;;;;;;100.20;43.90;;;0.00;99.90;;;;;;10509103;28;20217;-88
2021/12/29 21:09:09;;;;;;;118.33;49.30;;;0.00;99.90;;;;;;10509398;28;20194;-85
2021/12/29 21:14:31;;;;;;;141.47;56.87;;;0.00;99.90;;;;;;10523148;28;20195;-89
2021/12/29 21:19:53;;;;;;;142.00;57.20;;;0.00;99.90;;;;;;10523898;28;20225;-88
2021/12/29 21:25:17;;;;;;;157.50;59.73;;;-0.10;99.90;;;;;;10523535;28;20194;-86
2021/12/29 21:30:39;;;;;;;148.07;56.80;;;-0.10;99.90;;;;;;10508708;28;20203;-88
2021/12/29 21:36:02;;;;;;;152.40;58.90;;;-0.10;99.90;;;;;;10522800;28;20285;-86
2021/12/29 21:41:24;;;;;;;168.53;65.63;;;-0.10;99.90;;;;;;10507928;28;20480;-80
2021/12/29 21:46:47;;;;;;;158.33;63.10;;;-0.10;99.90;;;;;;10507950;28;20200;-80
2021/12/29 21:52:09;;;;;;;147.27;59.50;;;0.00;99.90;;;;;;10507384;28;20203;-80
2021/12/29 21:57:47;;;;;;;129.97;52.83;;;0.00;99.90;;;;;;10509347;28;20631;-85
2021/12/29 22:03:11;;;;;;;120.17;50.30;;;0.10;99.90;;;;;;10507053;28;20371;-85
2021/12/29 22:08:33;;;;;;;124.23;48.70;;;0.10;99.90;;;;;;10490747;28;20200;-84
2021/12/29 22:13:55;;;;;;;114.43;48.17;;;0.00;99.90;;;;;;10479313;28;20605;-87
2021/12/29 22:19:17;;;;;;;111.60;48.83;;;0.10;99.90;;;;;;10465642;28;20235;-85
2021/12/29 22:24:39;;;;;;;105.57;46.87;;;0.10;99.90;;;;;;10465203;28;20245;-83
2021/12/29 22:30:07;;;;;;;110.97;46.10;;;0.10;99.90;;;;;;10464975;28;20229;-89
2021/12/29 22:35:31;;;;;;;129.33;50.83;;;0.20;99.90;;;;;;10465084;28;20225;-87
2021/12/29 22:40:53;;;;;;;126.03;52.53;;;0.20;99.90;;;;;;10469120;28;20194;-88
2021/12/29 22:46:15;;;;;;;150.93;59.00;;;0.30;99.90;;;;;;10509338;28;20199;-85
2021/12/29 22:51:37;;;;;;;156.80;63.43;;;0.20;99.90;;;;;;10530323;28;20253;-84
2021/12/29 22:57:03;;;;;;;162.53;64.07;;;0.20;99.90;;;;;;10520817;28;20309;-89
2021/12/29 23:02:25;;;;;;;182.13;66.93;;;0.30;99.90;;;;;;10505475;28;20493;-86
2021/12/29 23:07:48;;;;;;;176.03;67.03;;;0.30;99.90;;;;;;10505438;28;20206;-88
2021/12/29 23:13:10;;;;;;;157.63;61.03;;;0.30;99.90;;;;;;10496816;28;20221;-87
2021/12/29 23:18:36;;;;;;;143.17;55.97;;;0.30;99.90;;;;;;10505541;28;20305;-89
2021/12/29 23:24:04;;;;;;;142.27;55.23;;;0.20;99.90;;;;;;10507515;28;20218;-87
2021/12/29 23:29:26;;;;;;;150.80;55.60;;;0.20;99.90;;;;;;10499642;28;20218;-88
2021/12/29 23:34:50;;;;;;;153.10;56.80;;;0.20;99.90;;;;;;10513007;28;20221;-86
2021/12/29 23:40:13;;;;;;;150.60;53.67;;;0.10;99.90;;;;;;10512965;28;20322;-81
2021/12/29 23:45:35;;;;;;;140.27;53.03;;;0.10;99.90;;;;;;10525036;28;20397;-81
2021/12/29 23:50:59;;;;;;;162.90;57.20;;;0.10;99.90;;;;;;10512426;28;20234;-84
2021/12/29 23:56:21;;;;;;;146.67;56.40;;;0.10;99.90;;;;;;10512451;28;20276;-84
